sensor_id;sensor_type;location;lat;lon;timestamp;P1;durP1;ratioP1;P2;durP2;ratioP2
46777;SDS011;32536;47.128;8.746;2022-08-19T00:01:54;2.58;;;1.23;;
46777;SDS011;32536;47.128;8.746;2022-08-19T00:04:24;2.35;;;1.27;;
46777;SDS011;32536;47.128;8.746;2022-08-19T00:06:56;1.95;;;1.05;;
46777;SDS011;32536;47.128;8.746;2022-08-19T00:09:24;2.97;;;1.70;;
46777;SDS011;32536;47.128;8.746;2022-08-19T00:11:53;1.77;;;1.05;;
46777;SDS011;32536;47.128;8.746;2022-08-19T00:14:21;1.85;;;1.02;;
46777;SDS011;32536;47.128;8.746;2022-08-19T00:16:50;2.80;;;1.30;;
46777;SDS011;32536;47.128;8.746;2022-08-19T00:19:19;1.77;;;0.98;;
46777;SDS011;32536;47.128;8.746;2022-08-19T00:21:47;2.25;;;1.30;;
46777;SDS011;32536;47.128;8.746;2022-08-19T00:24:14;3.03;;;1.73;;
46777;SDS011;32536;47.128;8.746;2022-08-19T00:26:42;1.95;;;0.98;;
46777;SDS011;32536;47.128;8.746;2022-08-19T00:29:11;2.22;;;1.25;;
46777;SDS011;32536;47.128;8.746;2022-08-19T00:31:41;2.53;;;1.35;;
46777;SDS011;32536;47.128;8.746;2022-08-19T00:34:09;2.03;;;1.38;;
46777;SDS011;32536;47.128;8.746;2022-08-19T00:36:38;2.08;;;0.98;;
46777;SDS011;32536;47.128;8.746;2022-08-19T00:39:06;1.80;;;1.00;;
46777;SDS011;32536;47.128;8.746;2022-08-19T00:41:35;1.92;;;0.95;;
46777;SDS011;32536;47.128;8.746;2022-08-19T00:46:38;2.35;;;1.50;;
46777;SDS011;32536;47.128;8.746;2022-08-19T00:49:10;2.05;;;1.10;;
46777;SDS011;32536;47.128;8.746;2022-08-19T00:51:46;3.05;;;1.67;;
46777;SDS011;32536;47.128;8.746;2022-08-19T00:54:16;2.22;;;1.20;;
46777;SDS011;32536;47.128;8.746;2022-08-19T00:56:44;3.28;;;1.60;;
46777;SDS011;32536;47.128;8.746;2022-08-19T00:59:12;2.88;;;2.28;;
46777;SDS011;32536;47.128;8.746;2022-08-19T01:01:41;2.22;;;1.20;;
46777;SDS011;32536;47.128;8.746;2022-08-19T01:04:10;1.90;;;1.27;;
46777;SDS011;32536;47.128;8.746;2022-08-19T01:06:38;2.20;;;1.42;;
46777;SDS011;32536;47.128;8.746;2022-08-19T01:09:07;2.05;;;1.55;;
46777;SDS011;32536;47.128;8.746;2022-08-19T01:11:35;1.73;;;0.70;;
46777;SDS011;32536;47.128;8.746;2022-08-19T01:14:07;1.90;;;1.10;;
46777;SDS011;32536;47.128;8.746;2022-08-19T01:16:36;2.13;;;1.40;;
46777;SDS011;32536;47.128;8.746;2022-08-19T01:19:09;2.78;;;1.73;;
46777;SDS011;32536;47.128;8.746;2022-08-19T01:21:52;2.53;;;1.52;;
46777;SDS011;32536;47.128;8.746;2022-08-19T01:27:42;3.85;;;1.48;;
46777;SDS011;32536;47.128;8.746;2022-08-19T01:30:14;2.58;;;1.58;;
46777;SDS011;32536;47.128;8.746;2022-08-19T01:32:48;2.10;;;1.10;;
46777;SDS011;32536;47.128;8.746;2022-08-19T01:35:16;2.15;;;1.08;;
46777;SDS011;32536;47.128;8.746;2022-08-19T01:37:48;1.90;;;1.20;;
46777;SDS011;32536;47.128;8.746;2022-08-19T01:40:17;1.02;;;0.57;;
46777;SDS011;32536;47.128;8.746;2022-08-19T01:42:49;1.98;;;1.25;;
46777;SDS011;32536;47.128;8.746;2022-08-19T01:47:46;1.50;;;0.93;;
46777;SDS011;32536;47.128;8.746;2022-08-19T01:50:14;1.85;;;1.33;;
46777;SDS011;32536;47.128;8.746;2022-08-19T01:52:42;2.20;;;1.20;;
46777;SDS011;32536;47.128;8.746;2022-08-19T01:55:12;2.00;;;1.17;;
46777;SDS011;32536;47.128;8.746;2022-08-19T01:57:50;2.33;;;1.52;;
46777;SDS011;32536;47.128;8.746;2022-08-19T02:00:23;2.30;;;1.10;;
46777;SDS011;32536;47.128;8.746;2022-08-19T02:02:53;2.50;;;1.30;;
46777;SDS011;32536;47.128;8.746;2022-08-19T02:05:19;1.98;;;1.23;;
46777;SDS011;32536;47.128;8.746;2022-08-19T02:07:47;2.58;;;1.45;;
46777;SDS011;32536;47.128;8.746;2022-08-19T02:10:17;1.80;;;1.23;;
46777;SDS011;32536;47.128;8.746;2022-08-19T02:12:47;1.85;;;0.95;;
46777;SDS011;32536;47.128;8.746;2022-08-19T02:15:18;3.40;;;1.50;;
46777;SDS011;32536;47.128;8.746;2022-08-19T02:17:46;2.65;;;1.65;;
46777;SDS011;32536;47.128;8.746;2022-08-19T02:20:13;2.03;;;1.10;;
46777;SDS011;32536;47.128;8.746;2022-08-19T02:22:41;2.00;;;0.98;;
46777;SDS011;32536;47.128;8.746;2022-08-19T02:25:17;2.42;;;1.20;;
46777;SDS011;32536;47.128;8.746;2022-08-19T02:27:44;2.83;;;1.20;;
46777;SDS011;32536;47.128;8.746;2022-08-19T02:30:12;2.10;;;0.98;;
46777;SDS011;32536;47.128;8.746;2022-08-19T02:35:09;2.75;;;1.27;;
46777;SDS011;32536;47.128;8.746;2022-08-19T02:37:37;1.88;;;1.27;;
46777;SDS011;32536;47.128;8.746;2022-08-19T02:40:22;1.48;;;0.80;;
46777;SDS011;32536;47.128;8.746;2022-08-19T02:42:49;1.50;;;0.98;;
46777;SDS011;32536;47.128;8.746;2022-08-19T02:45:16;1.45;;;1.05;;
46777;SDS011;32536;47.128;8.746;2022-08-19T02:47:43;1.25;;;0.77;;
46777;SDS011;32536;47.128;8.746;2022-08-19T02:50:10;0.77;;;0.50;;
46777;SDS011;32536;47.128;8.746;2022-08-19T02:52:38;1.67;;;1.10;;
46777;SDS011;32536;47.128;8.746;2022-08-19T02:55:05;1.48;;;0.93;;
46777;SDS011;32536;47.128;8.746;2022-08-19T02:57:32;1.63;;;1.10;;
46777;SDS011;32536;47.128;8.746;2022-08-19T02:59:59;1.75;;;0.57;;
46777;SDS011;32536;47.128;8.746;2022-08-19T03:02:27;1.85;;;1.15;;
46777;SDS011;32536;47.128;8.746;2022-08-19T03:04:53;2.28;;;1.20;;
46777;SDS011;32536;47.128;8.746;2022-08-19T03:07:20;1.80;;;0.80;;
46777;SDS011;32536;47.128;8.746;2022-08-19T03:09:47;3.10;;;1.30;;
46777;SDS011;32536;47.128;8.746;2022-08-19T03:12:14;2.00;;;1.20;;
46777;SDS011;32536;47.128;8.746;2022-08-19T03:14:40;2.03;;;1.02;;
46777;SDS011;32536;47.128;8.746;2022-08-19T03:19:53;1.90;;;0.90;;
46777;SDS011;32536;47.128;8.746;2022-08-19T03:22:19;1.38;;;0.80;;
46777;SDS011;32536;47.128;8.746;2022-08-19T03:24:46;1.63;;;1.00;;
46777;SDS011;32536;47.128;8.746;2022-08-19T03:27:47;1.55;;;1.15;;
46777;SDS011;32536;47.128;8.746;2022-08-19T03:30:14;1.30;;;1.10;;
46777;SDS011;32536;47.128;8.746;2022-08-19T03:32:41;1.13;;;0.60;;
46777;SDS011;32536;47.128;8.746;2022-08-19T03:35:08;1.65;;;1.00;;
46777;SDS011;32536;47.128;8.746;2022-08-19T03:37:35;2.22;;;1.20;;
46777;SDS011;32536;47.128;8.746;2022-08-19T03:40:02;2.20;;;1.33;;
46777;SDS011;32536;47.128;8.746;2022-08-19T03:42:29;2.35;;;1.13;;
46777;SDS011;32536;47.128;8.746;2022-08-19T03:44:56;1.88;;;1.35;;
46777;SDS011;32536;47.128;8.746;2022-08-19T03:47:23;2.20;;;0.90;;
46777;SDS011;32536;47.128;8.746;2022-08-19T03:49:51;1.75;;;1.02;;
46777;SDS011;32536;47.128;8.746;2022-08-19T03:52:17;1.98;;;1.38;;
46777;SDS011;32536;47.128;8.746;2022-08-19T03:54:44;2.13;;;1.42;;
46777;SDS011;32536;47.128;8.746;2022-08-19T03:57:11;2.58;;;1.15;;
46777;SDS011;32536;47.128;8.746;2022-08-19T03:59:38;1.80;;;1.50;;
46777;SDS011;32536;47.128;8.746;2022-08-19T04:02:07;1.45;;;0.80;;
46777;SDS011;32536;47.128;8.746;2022-08-19T04:04:39;1.50;;;1.00;;
46777;SDS011;32536;47.128;8.746;2022-08-19T04:07:09;1.23;;;0.73;;
46777;SDS011;32536;47.128;8.746;2022-08-19T04:09:38;2.17;;;1.00;;
46777;SDS011;32536;47.128;8.746;2022-08-19T04:12:05;1.77;;;1.40;;
46777;SDS011;32536;47.128;8.746;2022-08-19T04:14:33;1.40;;;0.98;;
46777;SDS011;32536;47.128;8.746;2022-08-19T04:17:02;1.52;;;0.93;;
46777;SDS011;32536;47.128;8.746;2022-08-19T04:19:33;1.50;;;0.90;;
46777;SDS011;32536;47.128;8.746;2022-08-19T04:22:02;2.15;;;1.02;;
46777;SDS011;32536;47.128;8.746;2022-08-19T04:24:30;1.35;;;1.10;;
46777;SDS011;32536;47.128;8.746;2022-08-19T04:26:58;0.95;;;0.75;;
46777;SDS011;32536;47.128;8.746;2022-08-19T04:29:27;1.50;;;0.80;;
46777;SDS011;32536;47.128;8.746;2022-08-19T04:31:55;1.75;;;1.08;;
46777;SDS011;32536;47.128;8.746;2022-08-19T04:34:25;3.00;;;1.65;;
46777;SDS011;32536;47.128;8.746;2022-08-19T04:36:55;3.28;;;1.65;;
46777;SDS011;32536;47.128;8.746;2022-08-19T04:39:25;3.38;;;2.00;;
46777;SDS011;32536;47.128;8.746;2022-08-19T04:42:15;3.63;;;1.98;;
46777;SDS011;32536;47.128;8.746;2022-08-19T04:45:03;4.50;;;2.60;;
46777;SDS011;32536;47.128;8.746;2022-08-19T04:47:31;4.32;;;2.50;;
46777;SDS011;32536;47.128;8.746;2022-08-19T04:49:58;5.38;;;3.05;;
46777;SDS011;32536;47.128;8.746;2022-08-19T04:52:25;4.32;;;2.10;;
46777;SDS011;32536;47.128;8.746;2022-08-19T04:54:52;4.35;;;1.95;;
46777;SDS011;32536;47.128;8.746;2022-08-19T04:57:21;3.45;;;1.83;;
46777;SDS011;32536;47.128;8.746;2022-08-19T04:59:48;3.38;;;2.20;;
46777;SDS011;32536;47.128;8.746;2022-08-19T05:02:15;5.10;;;2.85;;
46777;SDS011;32536;47.128;8.746;2022-08-19T05:04:41;4.07;;;2.28;;
46777;SDS011;32536;47.128;8.746;2022-08-19T05:07:08;4.85;;;2.92;;
46777;SDS011;32536;47.128;8.746;2022-08-19T05:09:35;5.38;;;2.88;;
46777;SDS011;32536;47.128;8.746;2022-08-19T05:12:03;5.90;;;3.35;;
46777;SDS011;32536;47.128;8.746;2022-08-19T05:14:31;5.00;;;2.65;;
46777;SDS011;32536;47.128;8.746;2022-08-19T05:16:58;4.45;;;2.67;;
46777;SDS011;32536;47.128;8.746;2022-08-19T05:19:26;5.38;;;3.63;;
46777;SDS011;32536;47.128;8.746;2022-08-19T05:22:11;5.53;;;3.35;;
46777;SDS011;32536;47.128;8.746;2022-08-19T05:27:54;5.38;;;3.28;;
46777;SDS011;32536;47.128;8.746;2022-08-19T05:30:21;4.88;;;2.67;;
46777;SDS011;32536;47.128;8.746;2022-08-19T05:32:47;4.25;;;2.30;;
46777;SDS011;32536;47.128;8.746;2022-08-19T05:35:14;5.20;;;2.58;;
46777;SDS011;32536;47.128;8.746;2022-08-19T05:37:41;6.18;;;4.60;;
46777;SDS011;32536;47.128;8.746;2022-08-19T05:40:08;5.07;;;3.08;;
46777;SDS011;32536;47.128;8.746;2022-08-19T05:42:35;5.13;;;2.83;;
46777;SDS011;32536;47.128;8.746;2022-08-19T05:45:03;3.88;;;2.17;;
46777;SDS011;32536;47.128;8.746;2022-08-19T05:47:30;4.30;;;2.28;;
46777;SDS011;32536;47.128;8.746;2022-08-19T05:49:57;4.53;;;2.53;;
46777;SDS011;32536;47.128;8.746;2022-08-19T05:52:27;4.10;;;2.20;;
46777;SDS011;32536;47.128;8.746;2022-08-19T05:54:54;2.47;;;1.38;;
46777;SDS011;32536;47.128;8.746;2022-08-19T05:57:21;3.22;;;1.75;;
46777;SDS011;32536;47.128;8.746;2022-08-19T05:59:48;4.80;;;2.72;;
46777;SDS011;32536;47.128;8.746;2022-08-19T06:02:16;3.20;;;1.63;;
46777;SDS011;32536;47.128;8.746;2022-08-19T06:04:43;3.85;;;2.00;;
46777;SDS011;32536;47.128;8.746;2022-08-19T06:07:10;3.75;;;2.35;;
46777;SDS011;32536;47.128;8.746;2022-08-19T06:09:37;3.67;;;1.85;;
46777;SDS011;32536;47.128;8.746;2022-08-19T06:12:04;3.58;;;2.30;;
46777;SDS011;32536;47.128;8.746;2022-08-19T06:14:33;3.90;;;2.33;;
46777;SDS011;32536;47.128;8.746;2022-08-19T06:17:01;4.13;;;2.47;;
46777;SDS011;32536;47.128;8.746;2022-08-19T06:19:29;5.40;;;2.70;;
46777;SDS011;32536;47.128;8.746;2022-08-19T06:21:57;4.53;;;2.60;;
46777;SDS011;32536;47.128;8.746;2022-08-19T06:24:26;3.65;;;2.15;;
46777;SDS011;32536;47.128;8.746;2022-08-19T06:26:55;5.00;;;2.75;;
46777;SDS011;32536;47.128;8.746;2022-08-19T06:29:24;4.10;;;2.38;;
46777;SDS011;32536;47.128;8.746;2022-08-19T06:31:53;4.78;;;2.80;;
46777;SDS011;32536;47.128;8.746;2022-08-19T06:34:24;5.15;;;2.55;;
46777;SDS011;32536;47.128;8.746;2022-08-19T06:36:53;4.18;;;2.20;;
46777;SDS011;32536;47.128;8.746;2022-08-19T06:39:25;3.72;;;2.00;;
46777;SDS011;32536;47.128;8.746;2022-08-19T06:41:57;4.95;;;2.75;;
46777;SDS011;32536;47.128;8.746;2022-08-19T06:44:27;3.95;;;2.22;;
46777;SDS011;32536;47.128;8.746;2022-08-19T06:47:01;3.40;;;1.63;;
46777;SDS011;32536;47.128;8.746;2022-08-19T06:49:34;3.30;;;1.38;;
46777;SDS011;32536;47.128;8.746;2022-08-19T06:52:02;4.72;;;2.58;;
46777;SDS011;32536;47.128;8.746;2022-08-19T06:54:30;3.55;;;2.03;;
46777;SDS011;32536;47.128;8.746;2022-08-19T06:56:58;4.75;;;2.47;;
46777;SDS011;32536;47.128;8.746;2022-08-19T07:01:57;5.50;;;3.03;;
46777;SDS011;32536;47.128;8.746;2022-08-19T07:04:28;5.40;;;3.20;;
46777;SDS011;32536;47.128;8.746;2022-08-19T07:07:07;5.40;;;3.20;;
46777;SDS011;32536;47.128;8.746;2022-08-19T07:09:40;5.85;;;3.47;;
46777;SDS011;32536;47.128;8.746;2022-08-19T07:12:10;4.30;;;2.83;;
46777;SDS011;32536;47.128;8.746;2022-08-19T07:14:40;4.78;;;3.00;;
46777;SDS011;32536;47.128;8.746;2022-08-19T07:17:08;3.72;;;1.83;;
46777;SDS011;32536;47.128;8.746;2022-08-19T07:19:37;4.78;;;2.65;;
46777;SDS011;32536;47.128;8.746;2022-08-19T07:22:07;4.60;;;2.25;;
46777;SDS011;32536;47.128;8.746;2022-08-19T07:24:34;5.43;;;3.38;;
46777;SDS011;32536;47.128;8.746;2022-08-19T07:27:03;4.45;;;2.30;;
46777;SDS011;32536;47.128;8.746;2022-08-19T07:29:32;5.13;;;3.17;;
46777;SDS011;32536;47.128;8.746;2022-08-19T07:32:01;6.50;;;3.47;;
46777;SDS011;32536;47.128;8.746;2022-08-19T07:34:30;6.80;;;3.70;;
46777;SDS011;32536;47.128;8.746;2022-08-19T07:37:02;5.28;;;3.33;;
46777;SDS011;32536;47.128;8.746;2022-08-19T07:39:32;5.40;;;2.50;;
46777;SDS011;32536;47.128;8.746;2022-08-19T07:42:02;5.50;;;2.80;;
46777;SDS011;32536;47.128;8.746;2022-08-19T07:44:34;7.00;;;3.88;;
46777;SDS011;32536;47.128;8.746;2022-08-19T07:47:01;7.68;;;4.78;;
46777;SDS011;32536;47.128;8.746;2022-08-19T07:49:30;8.15;;;4.47;;
46777;SDS011;32536;47.128;8.746;2022-08-19T07:52:05;6.97;;;4.03;;
46777;SDS011;32536;47.128;8.746;2022-08-19T07:54:36;7.55;;;4.55;;
46777;SDS011;32536;47.128;8.746;2022-08-19T07:57:06;8.07;;;4.47;;
46777;SDS011;32536;47.128;8.746;2022-08-19T07:59:33;5.25;;;2.72;;
46777;SDS011;32536;47.128;8.746;2022-08-19T08:02:01;5.43;;;3.42;;
46777;SDS011;32536;47.128;8.746;2022-08-19T08:04:29;5.28;;;3.15;;
46777;SDS011;32536;47.128;8.746;2022-08-19T08:07:15;4.03;;;2.22;;
46777;SDS011;32536;47.128;8.746;2022-08-19T08:10:01;5.00;;;2.67;;
46777;SDS011;32536;47.128;8.746;2022-08-19T08:12:31;5.65;;;3.00;;
46777;SDS011;32536;47.128;8.746;2022-08-19T08:15:08;6.40;;;3.72;;
46777;SDS011;32536;47.128;8.746;2022-08-19T08:17:42;5.38;;;2.72;;
46777;SDS011;32536;47.128;8.746;2022-08-19T08:20:10;5.90;;;3.85;;
46777;SDS011;32536;47.128;8.746;2022-08-19T08:22:42;6.65;;;3.50;;
46777;SDS011;32536;47.128;8.746;2022-08-19T08:25:39;5.13;;;2.50;;
46777;SDS011;32536;47.128;8.746;2022-08-19T08:28:05;6.05;;;3.42;;
46777;SDS011;32536;47.128;8.746;2022-08-19T08:30:34;4.65;;;1.92;;
46777;SDS011;32536;47.128;8.746;2022-08-19T08:33:02;4.15;;;2.15;;
46777;SDS011;32536;47.128;8.746;2022-08-19T08:35:29;6.05;;;2.78;;
46777;SDS011;32536;47.128;8.746;2022-08-19T08:37:56;3.88;;;2.10;;
46777;SDS011;32536;47.128;8.746;2022-08-19T08:43:24;4.05;;;2.40;;
46777;SDS011;32536;47.128;8.746;2022-08-19T08:46:09;3.13;;;1.95;;
46777;SDS011;32536;47.128;8.746;2022-08-19T08:51:25;3.70;;;1.75;;
46777;SDS011;32536;47.128;8.746;2022-08-19T08:53:58;2.28;;;1.45;;
46777;SDS011;32536;47.128;8.746;2022-08-19T08:56:27;2.28;;;1.38;;
46777;SDS011;32536;47.128;8.746;2022-08-19T08:59:12;2.17;;;1.52;;
46777;SDS011;32536;47.128;8.746;2022-08-19T09:01:52;3.35;;;2.38;;
46777;SDS011;32536;47.128;8.746;2022-08-19T09:04:19;2.80;;;1.50;;
46777;SDS011;32536;47.128;8.746;2022-08-19T09:06:51;1.95;;;1.05;;
46777;SDS011;32536;47.128;8.746;2022-08-19T09:09:37;2.50;;;1.35;;
46777;SDS011;32536;47.128;8.746;2022-08-19T09:12:11;2.30;;;1.38;;
46777;SDS011;32536;47.128;8.746;2022-08-19T09:15:08;3.03;;;1.70;;
46777;SDS011;32536;47.128;8.746;2022-08-19T09:17:39;2.00;;;1.10;;
46777;SDS011;32536;47.128;8.746;2022-08-19T09:22:36;2.60;;;0.95;;
46777;SDS011;32536;47.128;8.746;2022-08-19T09:25:06;2.17;;;1.40;;
46777;SDS011;32536;47.128;8.746;2022-08-19T09:28:08;1.67;;;0.80;;
46777;SDS011;32536;47.128;8.746;2022-08-19T09:30:39;2.70;;;1.80;;
46777;SDS011;32536;47.128;8.746;2022-08-19T09:33:07;3.03;;;1.23;;
46777;SDS011;32536;47.128;8.746;2022-08-19T09:35:34;3.30;;;1.60;;
46777;SDS011;32536;47.128;8.746;2022-08-19T09:38:01;4.20;;;1.73;;
46777;SDS011;32536;47.128;8.746;2022-08-19T09:40:28;2.92;;;1.45;;
46777;SDS011;32536;47.128;8.746;2022-08-19T09:42:56;2.92;;;1.50;;
46777;SDS011;32536;47.128;8.746;2022-08-19T09:45:28;3.20;;;1.67;;
46777;SDS011;32536;47.128;8.746;2022-08-19T09:47:55;3.13;;;1.55;;
46777;SDS011;32536;47.128;8.746;2022-08-19T09:50:23;2.63;;;1.35;;
46777;SDS011;32536;47.128;8.746;2022-08-19T09:52:50;4.30;;;2.15;;
46777;SDS011;32536;47.128;8.746;2022-08-19T09:55:18;3.63;;;1.98;;
46777;SDS011;32536;47.128;8.746;2022-08-19T09:57:44;3.42;;;1.90;;
46777;SDS011;32536;47.128;8.746;2022-08-19T10:00:11;3.70;;;2.03;;
46777;SDS011;32536;47.128;8.746;2022-08-19T10:02:38;3.33;;;1.60;;
46777;SDS011;32536;47.128;8.746;2022-08-19T10:05:05;3.83;;;2.25;;
46777;SDS011;32536;47.128;8.746;2022-08-19T10:07:51;3.50;;;1.50;;
46777;SDS011;32536;47.128;8.746;2022-08-19T10:10:18;4.47;;;2.17;;
46777;SDS011;32536;47.128;8.746;2022-08-19T10:12:45;4.93;;;2.25;;
46777;SDS011;32536;47.128;8.746;2022-08-19T10:15:13;4.68;;;1.98;;
46777;SDS011;32536;47.128;8.746;2022-08-19T10:17:40;4.57;;;2.50;;
46777;SDS011;32536;47.128;8.746;2022-08-19T10:20:07;4.45;;;1.70;;
46777;SDS011;32536;47.128;8.746;2022-08-19T10:22:34;5.72;;;3.53;;
46777;SDS011;32536;47.128;8.746;2022-08-19T10:25:03;5.95;;;3.83;;
46777;SDS011;32536;47.128;8.746;2022-08-19T10:27:31;6.55;;;3.38;;
46777;SDS011;32536;47.128;8.746;2022-08-19T10:29:58;5.43;;;2.65;;
46777;SDS011;32536;47.128;8.746;2022-08-19T10:32:25;5.18;;;2.60;;
46777;SDS011;32536;47.128;8.746;2022-08-19T10:34:52;5.47;;;3.10;;
46777;SDS011;32536;47.128;8.746;2022-08-19T10:37:19;4.25;;;1.95;;
46777;SDS011;32536;47.128;8.746;2022-08-19T10:39:46;5.20;;;2.95;;
46777;SDS011;32536;47.128;8.746;2022-08-19T10:42:16;4.60;;;2.72;;
46777;SDS011;32536;47.128;8.746;2022-08-19T10:44:44;4.85;;;2.60;;
46777;SDS011;32536;47.128;8.746;2022-08-19T10:47:12;3.75;;;2.15;;
46777;SDS011;32536;47.128;8.746;2022-08-19T10:49:39;5.63;;;3.20;;
46777;SDS011;32536;47.128;8.746;2022-08-19T10:52:25;4.72;;;2.83;;
46777;SDS011;32536;47.128;8.746;2022-08-19T10:55:03;6.05;;;2.85;;
46777;SDS011;32536;47.128;8.746;2022-08-19T10:57:50;4.97;;;2.53;;
46777;SDS011;32536;47.128;8.746;2022-08-19T11:00:21;4.20;;;1.50;;
46777;SDS011;32536;47.128;8.746;2022-08-19T11:02:49;2.72;;;1.48;;
46777;SDS011;32536;47.128;8.746;2022-08-19T11:05:17;3.40;;;2.00;;
46777;SDS011;32536;47.128;8.746;2022-08-19T11:07:44;3.03;;;1.42;;
46777;SDS011;32536;47.128;8.746;2022-08-19T11:10:12;5.47;;;2.60;;
46777;SDS011;32536;47.128;8.746;2022-08-19T11:12:41;3.92;;;2.22;;
46777;SDS011;32536;47.128;8.746;2022-08-19T11:15:08;3.40;;;1.85;;
46777;SDS011;32536;47.128;8.746;2022-08-19T11:17:37;3.95;;;2.08;;
46777;SDS011;32536;47.128;8.746;2022-08-19T11:20:10;4.45;;;2.13;;
46777;SDS011;32536;47.128;8.746;2022-08-19T11:22:39;4.30;;;2.38;;
46777;SDS011;32536;47.128;8.746;2022-08-19T11:25:07;4.68;;;2.50;;
46777;SDS011;32536;47.128;8.746;2022-08-19T11:27:40;3.45;;;1.60;;
46777;SDS011;32536;47.128;8.746;2022-08-19T11:30:09;5.45;;;2.55;;
46777;SDS011;32536;47.128;8.746;2022-08-19T11:32:38;5.32;;;2.70;;
46777;SDS011;32536;47.128;8.746;2022-08-19T11:35:05;4.10;;;2.40;;
46777;SDS011;32536;47.128;8.746;2022-08-19T11:37:32;3.55;;;1.98;;
46777;SDS011;32536;47.128;8.746;2022-08-19T11:40:03;4.03;;;1.83;;
46777;SDS011;32536;47.128;8.746;2022-08-19T11:42:31;4.68;;;2.30;;
46777;SDS011;32536;47.128;8.746;2022-08-19T11:45:17;5.50;;;3.20;;
46777;SDS011;32536;47.128;8.746;2022-08-19T11:47:43;4.97;;;2.47;;
46777;SDS011;32536;47.128;8.746;2022-08-19T11:50:11;5.82;;;3.08;;
46777;SDS011;32536;47.128;8.746;2022-08-19T11:52:38;3.88;;;1.98;;
46777;SDS011;32536;47.128;8.746;2022-08-19T11:55:05;5.57;;;3.60;;
46777;SDS011;32536;47.128;8.746;2022-08-19T11:57:33;5.68;;;3.47;;
46777;SDS011;32536;47.128;8.746;2022-08-19T12:00:00;5.35;;;3.15;;
46777;SDS011;32536;47.128;8.746;2022-08-19T12:02:28;4.80;;;2.63;;
46777;SDS011;32536;47.128;8.746;2022-08-19T12:04:54;4.30;;;2.08;;
46777;SDS011;32536;47.128;8.746;2022-08-19T12:07:22;8.20;;;4.93;;
46777;SDS011;32536;47.128;8.746;2022-08-19T12:09:50;7.40;;;4.32;;
46777;SDS011;32536;47.128;8.746;2022-08-19T12:12:17;5.82;;;3.60;;
46777;SDS011;32536;47.128;8.746;2022-08-19T12:14:43;4.75;;;2.78;;
46777;SDS011;32536;47.128;8.746;2022-08-19T12:17:12;4.95;;;2.88;;
46777;SDS011;32536;47.128;8.746;2022-08-19T12:19:39;4.82;;;2.58;;
46777;SDS011;32536;47.128;8.746;2022-08-19T12:22:05;4.65;;;2.08;;
46777;SDS011;32536;47.128;8.746;2022-08-19T12:24:33;6.80;;;4.00;;
46777;SDS011;32536;47.128;8.746;2022-08-19T12:27:00;7.68;;;4.25;;
46777;SDS011;32536;47.128;8.746;2022-08-19T12:29:27;6.38;;;3.85;;
46777;SDS011;32536;47.128;8.746;2022-08-19T12:31:55;5.43;;;3.33;;
46777;SDS011;32536;47.128;8.746;2022-08-19T12:34:28;6.18;;;3.60;;
46777;SDS011;32536;47.128;8.746;2022-08-19T12:36:57;5.10;;;3.08;;
46777;SDS011;32536;47.128;8.746;2022-08-19T12:39:27;7.50;;;4.05;;
46777;SDS011;32536;47.128;8.746;2022-08-19T12:41:55;5.82;;;3.47;;
46777;SDS011;32536;47.128;8.746;2022-08-19T12:44:23;4.95;;;2.80;;
46777;SDS011;32536;47.128;8.746;2022-08-19T12:46:50;4.65;;;2.72;;
46777;SDS011;32536;47.128;8.746;2022-08-19T12:49:17;3.80;;;2.00;;
46777;SDS011;32536;47.128;8.746;2022-08-19T12:51:43;6.10;;;3.40;;
46777;SDS011;32536;47.128;8.746;2022-08-19T12:54:10;5.30;;;3.28;;
46777;SDS011;32536;47.128;8.746;2022-08-19T12:56:37;4.82;;;2.95;;
46777;SDS011;32536;47.128;8.746;2022-08-19T12:59:04;6.15;;;3.42;;
46777;SDS011;32536;47.128;8.746;2022-08-19T13:01:32;5.18;;;2.97;;
46777;SDS011;32536;47.128;8.746;2022-08-19T13:03:59;6.72;;;3.92;;
46777;SDS011;32536;47.128;8.746;2022-08-19T13:06:26;7.75;;;4.55;;
46777;SDS011;32536;47.128;8.746;2022-08-19T13:08:53;7.55;;;5.15;;
46777;SDS011;32536;47.128;8.746;2022-08-19T13:11:21;8.23;;;4.82;;
46777;SDS011;32536;47.128;8.746;2022-08-19T13:13:50;6.82;;;4.40;;
46777;SDS011;32536;47.128;8.746;2022-08-19T13:16:20;7.32;;;4.30;;
46777;SDS011;32536;47.128;8.746;2022-08-19T13:18:47;5.35;;;2.83;;
46777;SDS011;32536;47.128;8.746;2022-08-19T13:21:19;6.25;;;3.80;;
46777;SDS011;32536;47.128;8.746;2022-08-19T13:23:49;6.93;;;4.05;;
46777;SDS011;32536;47.128;8.746;2022-08-19T13:26:17;7.43;;;4.35;;
46777;SDS011;32536;47.128;8.746;2022-08-19T13:28:44;5.70;;;3.42;;
46777;SDS011;32536;47.128;8.746;2022-08-19T13:31:31;7.05;;;4.57;;
46777;SDS011;32536;47.128;8.746;2022-08-19T13:34:19;6.97;;;3.85;;
46777;SDS011;32536;47.128;8.746;2022-08-19T13:36:55;8.10;;;4.72;;
46777;SDS011;32536;47.128;8.746;2022-08-19T13:39:23;8.45;;;4.43;;
46777;SDS011;32536;47.128;8.746;2022-08-19T13:41:50;6.80;;;4.20;;
46777;SDS011;32536;47.128;8.746;2022-08-19T13:44:17;5.90;;;3.30;;
46777;SDS011;32536;47.128;8.746;2022-08-19T13:46:46;9.40;;;5.45;;
46777;SDS011;32536;47.128;8.746;2022-08-19T13:49:17;9.85;;;6.22;;
46777;SDS011;32536;47.128;8.746;2022-08-19T13:51:46;7.35;;;4.45;;
46777;SDS011;32536;47.128;8.746;2022-08-19T13:54:13;7.55;;;4.32;;
46777;SDS011;32536;47.128;8.746;2022-08-19T13:56:43;6.90;;;3.38;;
46777;SDS011;32536;47.128;8.746;2022-08-19T13:59:11;8.52;;;4.97;;
46777;SDS011;32536;47.128;8.746;2022-08-19T14:01:38;7.20;;;3.83;;
46777;SDS011;32536;47.128;8.746;2022-08-19T14:04:06;8.20;;;4.32;;
46777;SDS011;32536;47.128;8.746;2022-08-19T14:06:34;5.60;;;3.33;;
46777;SDS011;32536;47.128;8.746;2022-08-19T14:09:01;5.82;;;3.35;;
46777;SDS011;32536;47.128;8.746;2022-08-19T14:11:29;8.40;;;5.00;;
46777;SDS011;32536;47.128;8.746;2022-08-19T14:13:56;10.82;;;6.13;;
46777;SDS011;32536;47.128;8.746;2022-08-19T14:16:23;6.97;;;4.05;;
46777;SDS011;32536;47.128;8.746;2022-08-19T14:18:50;7.75;;;3.80;;
46777;SDS011;32536;47.128;8.746;2022-08-19T14:21:18;8.88;;;5.35;;
46777;SDS011;32536;47.128;8.746;2022-08-19T14:23:49;7.47;;;4.80;;
46777;SDS011;32536;47.128;8.746;2022-08-19T14:26:17;7.70;;;4.63;;
46777;SDS011;32536;47.128;8.746;2022-08-19T14:28:46;7.38;;;4.88;;
46777;SDS011;32536;47.128;8.746;2022-08-19T14:31:14;8.65;;;5.15;;
46777;SDS011;32536;47.128;8.746;2022-08-19T14:33:47;9.75;;;5.10;;
46777;SDS011;32536;47.128;8.746;2022-08-19T14:38:42;9.88;;;5.18;;
46777;SDS011;32536;47.128;8.746;2022-08-19T14:46:12;12.10;;;6.57;;
46777;SDS011;32536;47.128;8.746;2022-08-19T14:48:42;13.15;;;8.13;;
46777;SDS011;32536;47.128;8.746;2022-08-19T14:51:09;12.50;;;6.32;;
46777;SDS011;32536;47.128;8.746;2022-08-19T14:53:36;9.77;;;5.82;;
46777;SDS011;32536;47.128;8.746;2022-08-19T14:56:11;10.65;;;6.93;;
46777;SDS011;32536;47.128;8.746;2022-08-19T14:58:41;11.80;;;7.53;;
46777;SDS011;32536;47.128;8.746;2022-08-19T15:01:09;17.23;;;10.30;;
46777;SDS011;32536;47.128;8.746;2022-08-19T15:03:37;12.80;;;8.20;;
46777;SDS011;32536;47.128;8.746;2022-08-19T15:06:06;17.52;;;10.05;;
46777;SDS011;32536;47.128;8.746;2022-08-19T15:08:34;17.25;;;10.32;;
46777;SDS011;32536;47.128;8.746;2022-08-19T15:11:08;17.40;;;10.02;;
46777;SDS011;32536;47.128;8.746;2022-08-19T15:13:40;20.08;;;11.27;;
46777;SDS011;32536;47.128;8.746;2022-08-19T15:16:08;16.75;;;10.60;;
46777;SDS011;32536;47.128;8.746;2022-08-19T15:18:35;16.02;;;9.57;;
46777;SDS011;32536;47.128;8.746;2022-08-19T15:21:03;16.38;;;9.77;;
46777;SDS011;32536;47.128;8.746;2022-08-19T15:23:30;15.43;;;8.98;;
46777;SDS011;32536;47.128;8.746;2022-08-19T15:26:06;18.00;;;10.68;;
46777;SDS011;32536;47.128;8.746;2022-08-19T15:28:34;15.77;;;9.30;;
46777;SDS011;32536;47.128;8.746;2022-08-19T15:31:01;16.75;;;10.50;;
46777;SDS011;32536;47.128;8.746;2022-08-19T15:33:30;14.75;;;9.60;;
46777;SDS011;32536;47.128;8.746;2022-08-19T15:36:03;16.88;;;9.25;;